Time;durP1;ratioP1;P1;durP2;ratioP2;P2;SDS_P1;SDS_P2;PMS_P1;PMS_P2;Temp;Humidity;BMP_temperature;BMP_pressure;BME280_temperature;BME280_humidity;BME280_pressure;Samples;Min_cycle;Max_cycle;Signal;HPM_P1;HPM_P2
2022/11/10 00:00:48;;;;;;;40.00;22.33;;;8.30;99.90;;;;;;10331536;28;20282;-81
2022/11/10 00:06:28;;;;;;;34.87;20.77;;;8.30;99.90;;;;;;10332352;28;20232;-78
2022/11/10 00:12:08;;;;;;;42.23;22.07;;;8.40;99.90;;;;;;10356081;28;20387;-78
2022/11/10 00:17:48;;;;;;;38.67;21.93;;;8.50;99.90;;;;;;10318666;28;20420;-78
2022/11/10 00:23:28;;;;;;;39.57;23.93;;;8.50;99.90;;;;;;10340916;28;20485;-78
2022/11/10 00:29:08;;;;;;;37.70;21.67;;;8.50;99.90;;;;;;10340821;28;20207;-80
2022/11/10 00:34:48;;;;;;;37.33;20.67;;;8.50;99.90;;;;;;10329808;28;20500;-81
2022/11/10 00:40:28;;;;;;;36.00;19.37;;;8.60;99.90;;;;;;10348305;28;20209;-77
2022/11/10 00:46:08;;;;;;;30.63;17.67;;;8.60;99.90;;;;;;10340317;28;20242;-79
2022/11/10 00:51:48;;;;;;;28.03;17.73;;;8.60;99.90;;;;;;10345334;28;20194;-80
2022/11/10 00:57:30;;;;;;;24.80;16.40;;;8.60;99.90;;;;;;10339412;28;20635;-80
2022/11/10 01:03:15;;;;;;;28.57;16.93;;;8.50;99.90;;;;;;10304981;28;20215;-81
2022/11/10 01:08:55;;;;;;;29.83;17.67;;;8.50;99.90;;;;;;10369585;28;20233;-80
2022/11/10 01:14:35;;;;;;;24.73;16.50;;;8.60;99.90;;;;;;10313719;28;20526;-83
2022/11/10 01:20:15;;;;;;;25.07;15.73;;;8.60;99.90;;;;;;10344520;28;20210;-80
2022/11/10 01:26:01;;;;;;;23.03;14.87;;;8.60;99.90;;;;;;10344252;28;20237;-80
2022/11/10 01:31:41;;;;;;;21.97;15.77;;;8.60;99.90;;;;;;10344435;28;20193;-80
2022/11/10 01:37:22;;;;;;;23.00;14.97;;;8.60;99.90;;;;;;10338640;28;20219;-80
2022/11/10 01:43:03;;;;;;;22.43;14.87;;;8.60;99.90;;;;;;10355713;28;20187;-81
2022/11/10 01:48:54;;;;;;;25.87;15.77;;;8.60;99.90;;;;;;10344320;28;20250;-83
2022/11/10 01:54:39;;;;;;;21.67;14.50;;;8.70;99.90;;;;;;10343703;28;20200;-80
2022/11/10 02:00:20;;;;;;;19.17;14.20;;;8.70;99.90;;;;;;10350323;28;20290;-83
2022/11/10 02:06:01;;;;;;;21.87;13.40;;;8.70;99.90;;;;;;10344568;28;20295;-80
2022/11/10 02:11:42;;;;;;;23.30;14.07;;;8.70;99.90;;;;;;10379654;28;20253;-82
2022/11/10 02:17:22;;;;;;;22.53;13.43;;;8.70;99.90;;;;;;10368684;28;20202;-81
2022/11/10 02:23:35;;;;;;;21.93;14.70;;;8.70;99.90;;;;;;10351152;28;20270;-83
2022/11/10 02:29:14;;;;;;;23.13;14.73;;;8.70;99.90;;;;;;10234040;29;20243;-79
2022/11/10 02:34:54;;;;;;;19.83;13.43;;;8.70;99.90;;;;;;10217896;29;20282;-80
2022/11/10 02:40:34;;;;;;;23.93;15.83;;;8.60;99.90;;;;;;10217572;29;20212;-80
2022/11/10 02:46:13;;;;;;;26.43;15.73;;;8.60;99.90;;;;;;10228661;29;20247;-81
2022/11/10 02:51:53;;;;;;;22.90;14.93;;;8.60;99.90;;;;;;10228244;29;20204;-80
2022/11/10 02:57:33;;;;;;;19.40;14.13;;;8.60;99.90;;;;;;10228199;29;20241;-81
2022/11/10 03:03:13;;;;;;;20.63;14.43;;;8.60;99.90;;;;;;10296171;28;20518;-79
2022/11/10 03:08:53;;;;;;;21.63;13.93;;;8.60;99.90;;;;;;10390668;28;20261;-83
2022/11/10 03:14:33;;;;;;;23.20;15.30;;;8.60;99.90;;;;;;10334759;28;20317;-79
2022/11/10 03:20:14;;;;;;;19.67;13.47;;;8.60;99.90;;;;;;10337944;28;20233;-79
2022/11/10 03:25:54;;;;;;;21.60;13.13;;;8.70;99.90;;;;;;10343558;28;20426;-79
2022/11/10 03:31:33;;;;;;;17.33;12.83;;;8.60;99.90;;;;;;10343280;28;20209;-81
2022/11/10 03:37:14;;;;;;;22.23;13.00;;;8.60;99.90;;;;;;10332140;28;20228;-80
2022/11/10 03:42:54;;;;;;;17.97;13.07;;;8.60;99.90;;;;;;10349157;28;20194;-81
2022/11/10 03:48:34;;;;;;;18.83;12.77;;;8.60;99.90;;;;;;10360464;28;20277;-80
2022/11/10 03:54:14;;;;;;;20.20;13.50;;;8.60;99.90;;;;;;10342789;28;20206;-80
2022/11/10 03:59:54;;;;;;;20.00;14.67;;;8.60;99.90;;;;;;10351444;28;20254;-82
2022/11/10 04:17:31;;;;;;;14.37;10.83;;;8.50;99.90;;;;;;10359462;28;20198;-83
2022/11/10 04:23:27;;;;;;;16.00;11.33;;;8.50;99.90;;;;;;10330286;28;20213;-80
2022/11/10 04:29:08;;;;;;;17.00;12.47;;;8.50;99.90;;;;;;10358746;28;20231;-79
2022/11/10 04:34:48;;;;;;;17.97;11.07;;;8.50;99.90;;;;;;10358378;28;20264;-79
2022/11/10 04:40:29;;;;;;;16.90;11.63;;;8.50;99.90;;;;;;10340915;28;20213;-79
2022/11/10 04:46:38;;;;;;;16.13;10.87;;;8.50;99.90;;;;;;10346075;28;20309;-79
2022/11/10 04:52:18;;;;;;;17.97;11.60;;;8.50;99.90;;;;;;10345552;28;20195;-79
2022/11/10 04:57:58;;;;;;;23.00;14.13;;;8.50;99.90;;;;;;10328691;28;20318;-79
2022/11/10 05:03:38;;;;;;;17.60;11.07;;;8.50;99.90;;;;;;10328187;28;20213;-80
2022/11/10 05:09:18;;;;;;;17.13;11.60;;;8.50;99.90;;;;;;10375004;28;20253;-79
2022/11/10 05:14:58;;;;;;;20.27;13.87;;;8.50;99.90;;;;;;10356487;28;20222;-79
2022/11/10 05:20:38;;;;;;;22.43;13.50;;;8.50;99.90;;;;;;10363238;28;20400;-82
2022/11/10 05:26:18;;;;;;;42.63;21.40;;;8.40;99.90;;;;;;10357560;28;20277;-79
2022/11/10 05:31:58;;;;;;;41.53;22.60;;;8.40;99.90;;;;;;10327757;28;20198;-79
2022/11/10 05:37:39;;;;;;;25.67;16.47;;;8.30;99.90;;;;;;10327358;28;20207;-79
2022/11/10 05:43:19;;;;;;;21.70;12.97;;;8.30;99.90;;;;;;10327852;28;20424;-78
2022/11/10 05:48:59;;;;;;;15.17;12.03;;;8.20;99.90;;;;;;10327535;28;20238;-79
2022/11/10 05:54:39;;;;;;;16.33;12.30;;;8.20;99.90;;;;;;10355816;28;20244;-78
2022/11/10 06:00:22;;;;;;;28.80;16.57;;;8.20;99.90;;;;;;10331867;28;20242;-82
2022/11/10 06:06:03;;;;;;;22.60;13.63;;;8.30;99.90;;;;;;10321513;28;20233;-82
2022/11/10 06:11:42;;;;;;;22.10;14.13;;;8.30;99.90;;;;;;10373811;28;20202;-82
2022/11/10 06:17:24;;;;;;;20.20;13.80;;;8.40;99.90;;;;;;10355270;28;20208;-82
2022/11/10 06:23:10;;;;;;;18.97;12.90;;;8.40;99.90;;;;;;10355538;28;20199;-82
2022/11/10 06:28:50;;;;;;;41.17;24.37;;;8.40;99.90;;;;;;10337160;28;20233;-82
2022/11/10 06:34:32;;;;;;;19.67;13.03;;;8.40;99.90;;;;;;10337552;28;20258;-82
2022/11/10 06:40:12;;;;;;;16.97;11.50;;;8.50;99.90;;;;;;10337206;28;20211;-80
2022/11/10 06:45:52;;;;;;;23.23;13.17;;;8.50;99.90;;;;;;10343637;28;20424;-79
2022/11/10 06:51:32;;;;;;;21.13;10.87;;;8.60;99.90;;;;;;10345024;28;20330;-78
2022/11/10 06:57:13;;;;;;;13.37;10.33;;;8.70;99.90;;;;;;10358233;28;20221;-80
2022/11/10 07:03:08;;;;;;;13.37;9.97;;;8.70;99.90;;;;;;10316026;28;20259;-80
2022/11/10 07:08:49;;;;;;;14.93;10.43;;;8.70;99.90;;;;;;10372422;28;20235;-78
2022/11/10 07:14:28;;;;;;;15.10;8.50;;;8.90;99.90;;;;;;10317425;28;20502;-79
2022/11/10 07:20:09;;;;;;;12.80;8.17;;;9.00;99.90;;;;;;10354695;28;20213;-81
2022/11/10 07:25:48;;;;;;;17.93;9.60;;;9.30;99.90;;;;;;10360803;28;20222;-81
2022/11/10 07:31:29;;;;;;;11.63;6.93;;;9.90;99.90;;;;;;10360675;28;20314;-81
2022/11/10 07:37:09;;;;;;;13.47;7.07;;;10.30;99.90;;;;;;10332256;28;20204;-82
2022/11/10 07:42:48;;;;;;;10.00;6.70;;;10.50;99.90;;;;;;10331680;28;20282;-82
2022/11/10 07:48:28;;;;;;;7.53;5.90;;;10.40;70.50;;;;;;10331634;28;20257;-82
2022/11/10 07:54:08;;;;;;;7.40;5.10;;;10.20;90.50;;;;;;10331381;28;20216;-79
2022/11/10 07:59:48;;;;;;;10.77;5.50;;;10.20;58.00;;;;;;10333822;28;20256;-81
2022/11/10 08:05:31;;;;;;;8.43;5.37;;;10.20;99.70;;;;;;10333968;28;20512;-83
2022/11/10 08:11:11;;;;;;;10.00;5.23;;;10.30;40.00;;;;;;10352006;28;20206;-81
2022/11/10 08:16:51;;;;;;;13.50;5.80;;;10.10;62.80;;;;;;10336066;28;20235;-81
2022/11/10 08:22:31;;;;;;;10.43;4.90;;;10.10;50.00;;;;;;10336244;28;20220;-81
2022/11/10 08:28:15;;;;;;;10.13;4.53;;;10.10;80.10;;;;;;10295088;28;20265;-81
2022/11/10 08:33:55;;;;;;;12.47;5.67;;;10.00;94.30;;;;;;10329345;28;20204;-81
2022/11/10 08:39:34;;;;;;;11.60;5.50;;;10.00;98.10;;;;;;10324395;28;20403;-81
2022/11/10 08:45:17;;;;;;;9.20;4.43;;;10.00;89.70;;;;;;10334783;28;20200;-79
2022/11/10 08:50:59;;;;;;;9.17;4.47;;;10.00;99.90;;;;;;10333835;28;20278;-80
2022/11/10 08:56:39;;;;;;;9.27;5.23;;;10.00;99.90;;;;;;10334336;28;20502;-81
2022/11/10 09:02:19;;;;;;;11.00;5.33;;;10.00;99.90;;;;;;10295967;28;20228;-83
2022/11/10 09:07:58;;;;;;;7.50;4.53;;;10.30;91.00;;;;;;10299763;28;20236;-82
2022/11/10 09:13:38;;;;;;;10.13;4.17;;;10.70;16.00;;;;;;10308398;28;20239;-80
2022/11/10 09:19:19;;;;;;;7.13;3.67;;;11.20;1.00;;;;;;10322347;28;20588;-83
2022/11/10 09:24:58;;;;;;;7.13;3.30;;;11.40;1.00;;;;;;10323309;28;20212;-80
2022/11/10 09:30:39;;;;;;;9.07;3.50;;;11.40;1.00;;;;;;10350416;28;20267;-80
2022/11/10 09:36:25;;;;;;;8.27;4.97;;;11.40;1.00;;;;;;10333213;28;20205;-80
2022/11/10 09:42:30;;;;;;;7.10;3.23;;;11.50;1.00;;;;;;10350030;28;20219;-81
2022/11/10 09:48:42;;;;;;;6.20;2.90;;;11.40;1.00;;;;;;10341614;28;20526;-83
2022/11/10 09:54:42;;;;;;;5.57;2.77;;;11.30;1.00;;;;;;10321651;28;20208;-83
2022/11/10 10:00:21;;;;;;;6.00;2.33;;;11.00;1.00;;;;;;10286609;28;20239;-83
2022/11/10 10:06:15;;;;;;;4.00;2.20;;;10.90;1.00;;;;;;10322888;28;20271;-83
2022/11/10 10:11:58;;;;;;;5.10;1.50;;;11.00;1.00;;;;;;10326679;28;20248;-81
2022/11/10 10:17:59;;;;;;;5.30;1.70;;;11.00;1.00;;;;;;10338641;28;20228;-81
2022/11/10 10:24:01;;;;;;;10.97;1.80;;;11.20;1.00;;;;;;10325446;28;20203;-81
2022/11/10 10:29:49;;;;;;;3.50;1.87;;;11.30;1.00;;;;;;10307606;28;20229;-81
2022/11/10 10:35:30;;;;;;;4.00;1.60;;;11.10;1.00;;;;;;10289050;28;20205;-83
2022/11/10 10:41:31;;;;;;;6.13;1.80;;;11.10;1.00;;;;;;10310402;28;20268;-84
2022/11/10 10:47:11;;;;;;;5.77;1.80;;;11.10;1.00;;;;;;10300569;28;20235;-85
2022/11/10 10:53:17;;;;;;;5.73;2.27;;;11.00;31.40;;;;;;10300387;28;20201;-85
2022/11/10 10:59:03;;;;;;;8.97;2.47;;;11.00;22.50;;;;;;10304957;28;20236;-83
2022/11/10 11:04:43;;;;;;;5.83;2.17;;;11.00;13.20;;;;;;10306629;28;20502;-84
2022/11/10 11:10:27;;;;;;;7.00;1.90;;;11.00;10.30;;;;;;10330858;28;20249;-90
2022/11/10 11:16:11;;;;;;;9.10;2.07;;;11.00;7.30;;;;;;10308170;28;20531;-86
2022/11/10 11:22:09;;;;;;;6.87;1.73;;;11.10;1.00;;;;;;10364932;28;20216;-82
2022/11/10 11:27:52;;;;;;;6.63;2.27;;;11.20;1.00;;;;;;10358301;28;20575;-83
2022/11/10 11:33:32;;;;;;;12.77;4.97;;;11.60;1.00;;;;;;10339112;28;20393;-83
2022/11/10 11:39:39;;;;;;;7.13;2.70;;;11.70;1.00;;;;;;10327011;28;20212;-81
2022/11/10 11:45:28;;;;;;;6.13;2.27;;;11.80;1.00;;;;;;10341267;28;20216;-84
2022/11/10 11:51:33;;;;;;;6.00;1.63;;;11.60;1.00;;;;;;10337160;28;20209;-85
2022/11/10 11:57:42;;;;;;;8.13;1.73;;;11.60;1.00;;;;;;10336469;28;20517;-81
2022/11/10 12:03:31;;;;;;;5.57;1.70;;;11.60;1.00;;;;;;10341447;28;20203;-82
2022/11/10 12:09:45;;;;;;;7.90;1.90;;;11.60;1.00;;;;;;10335320;28;20238;-86
2022/11/10 12:16:08;;;;;;;11.00;2.13;;;11.70;1.00;;;;;;10228713;28;20232;-92
2022/11/10 12:21:56;;;;;;;12.27;2.13;;;12.20;99.90;;;;;;10269396;29;20197;-82
2022/11/10 12:27:45;;;;;;;11.33;2.53;;;12.30;1.00;;;;;;10242274;29;20239;-84
2022/11/10 12:34:11;;;;;;;11.73;2.63;;;12.20;99.90;;;;;;10241389;29;20231;-83
2022/11/10 12:40:04;;;;;;;11.80;2.30;;;12.30;1.00;;;;;;10203386;29;20492;-83
2022/11/10 12:45:50;;;;;;;10.23;2.53;;;12.00;1.00;;;;;;10202713;29;20225;-86
2022/11/10 12:51:53;;;;;;;7.93;2.00;;;11.70;1.00;;;;;;10174752;29;20208;-86
2022/11/10 12:57:33;;;;;;;9.33;2.40;;;11.60;1.00;;;;;;10178163;29;20243;-83
2022/11/10 13:03:24;;;;;;;12.67;2.70;;;11.60;1.00;;;;;;10179250;29;20223;-86
2022/11/10 13:09:03;;;;;;;9.60;2.70;;;11.60;1.00;;;;;;10296551;28;20462;-85
2022/11/10 13:14:44;;;;;;;7.77;2.60;;;11.40;1.00;;;;;;10311912;28;20249;-84
2022/11/10 13:20:44;;;;;;;6.80;2.27;;;11.30;1.00;;;;;;10285999;28;20283;-84
2022/11/10 13:26:54;;;;;;;11.27;1.97;;;11.30;99.90;;;;;;10282766;28;20546;-90
2022/11/10 13:32:34;;;;;;;10.80;1.90;;;11.30;99.90;;;;;;10282819;28;20222;-83
2022/11/10 13:38:32;;;;;;;12.77;2.73;;;11.40;99.90;;;;;;10299656;28;20483;-80
2022/11/10 13:44:40;;;;;;;7.83;2.10;;;11.30;99.90;;;;;;10283646;28;20214;-83
2022/11/10 13:50:39;;;;;;;6.93;2.10;;;11.30;1.00;;;;;;10286457;28;20221;-82
2022/11/10 13:56:26;;;;;;;16.93;3.37;;;11.20;1.00;;;;;;10282433;28;20221;-83
2022/11/10 14:02:40;;;;;;;10.63;2.97;;;11.30;1.00;;;;;;10281916;28;20210;-84
2022/11/10 14:08:26;;;;;;;4.70;1.93;;;11.20;1.00;;;;;;10337642;28;20258;-83
2022/11/10 14:14:23;;;;;;;9.53;2.50;;;11.10;1.00;;;;;;10324776;28;20211;-86
2022/11/10 14:20:18;;;;;;;25.63;12.87;;;11.10;1.00;;;;;;10289904;28;20224;-86
2022/11/10 14:26:02;;;;;;;10.40;3.33;;;11.00;1.00;;;;;;10281078;28;20210;-86
2022/11/10 14:31:42;;;;;;;5.63;2.67;;;10.90;1.00;;;;;;10296964;28;20442;-86
2022/11/10 14:37:28;;;;;;;10.80;3.97;;;10.80;1.00;;;;;;10281453;28;20212;-82
2022/11/10 14:43:32;;;;;;;9.43;4.47;;;10.60;1.00;;;;;;10282201;28;20218;-84
2022/11/10 14:49:12;;;;;;;10.63;5.40;;;10.50;1.00;;;;;;10297420;28;20426;-82
2022/11/10 14:54:52;;;;;;;19.43;8.53;;;10.40;1.00;;;;;;10291882;28;20212;-86
2022/11/10 15:00:38;;;;;;;20.50;7.83;;;10.40;1.00;;;;;;10282757;28;20410;-86
2022/11/10 15:06:20;;;;;;;12.53;4.73;;;10.50;1.00;;;;;;10305512;28;20530;-82
2022/11/10 15:11:59;;;;;;;8.27;3.97;;;10.40;1.00;;;;;;10328715;28;20212;-80
2022/11/10 15:17:47;;;;;;;8.63;4.20;;;10.50;1.00;;;;;;10328594;28;20215;-83
2022/11/10 15:23:38;;;;;;;10.27;4.43;;;10.50;1.00;;;;;;10327646;28;20251;-80
2022/11/10 15:29:20;;;;;;;12.90;5.47;;;10.40;1.00;;;;;;10322821;28;20300;-79
2022/11/10 15:35:10;;;;;;;9.60;5.07;;;10.30;1.00;;;;;;10355190;28;20219;-85
2022/11/10 15:40:57;;;;;;;9.13;5.60;;;10.20;1.00;;;;;;10332763;28;20212;-88
2022/11/10 15:46:37;;;;;;;13.33;7.40;;;10.10;1.00;;;;;;10304352;28;20264;-85
2022/11/10 15:52:20;;;;;;;28.07;13.90;;;10.00;1.00;;;;;;10297009;28;20214;-83
2022/11/10 15:58:00;;;;;;;37.40;19.13;;;9.90;1.00;;;;;;10286197;28;20240;-82
2022/11/10 16:03:41;;;;;;;48.90;24.33;;;9.90;1.00;;;;;;10297170;28;20240;-83
2022/11/10 16:09:20;;;;;;;60.30;32.47;;;9.90;1.00;;;;;;10348282;28;20311;-84
2022/11/10 16:15:00;;;;;;;57.60;31.87;;;9.90;1.00;;;;;;10347144;28;20206;-89
2022/11/10 16:20:40;;;;;;;53.03;30.53;;;9.70;1.00;;;;;;10289987;28;20208;-85
2022/11/10 16:26:23;;;;;;;48.33;27.97;;;9.50;1.00;;;;;;10290052;28;20376;-80
2022/11/10 16:32:03;;;;;;;52.20;28.57;;;9.40;18.10;;;;;;10289939;28;20495;-79
2022/11/10 16:37:43;;;;;;;46.67;28.70;;;9.40;69.70;;;;;;10300610;28;20208;-88
2022/11/10 16:43:24;;;;;;;37.43;21.77;;;9.50;60.20;;;;;;10317955;28;20390;-79
2022/11/10 16:49:30;;;;;;;34.37;24.07;;;9.60;49.60;;;;;;10317314;28;20433;-79
2022/11/10 16:55:30;;;;;;;61.03;35.37;;;9.60;32.60;;;;;;10308025;28;20216;-85
2022/11/10 17:01:20;;;;;;;50.20;29.67;;;9.50;23.40;;;;;;10299951;28;20299;-79
2022/11/10 17:07:00;;;;;;;37.07;22.73;;;9.50;22.10;;;;;;10338434;28;20219;-79
2022/11/10 17:12:40;;;;;;;34.47;18.40;;;9.50;17.40;;;;;;10315240;28;20374;-83
2022/11/10 17:18:22;;;;;;;46.60;22.73;;;9.50;15.70;;;;;;10343521;28;20549;-80
2022/11/10 17:24:03;;;;;;;50.37;22.07;;;9.50;12.20;;;;;;10356690;28;20199;-80
2022/11/10 17:29:43;;;;;;;46.10;18.37;;;9.50;6.90;;;;;;10355806;28;20421;-80
2022/11/10 17:35:25;;;;;;;34.07;15.30;;;9.40;13.70;;;;;;10333447;28;20200;-79
2022/11/10 17:41:12;;;;;;;28.23;12.57;;;9.40;22.30;;;;;;10327662;28;20202;-79
2022/11/10 17:46:52;;;;;;;28.43;13.10;;;9.40;25.00;;;;;;10328156;28;20217;-84
2022/11/10 17:52:32;;;;;;;36.43;16.00;;;9.30;43.00;;;;;;10327616;28;20209;-79
2022/11/10 17:58:13;;;;;;;25.83;11.50;;;9.40;59.40;;;;;;10343731;28;20282;-81
2022/11/10 18:03:53;;;;;;;25.00;10.67;;;9.40;70.30;;;;;;10303404;28;20200;-79
2022/11/10 18:09:33;;;;;;;51.47;20.63;;;9.50;67.50;;;;;;10383369;28;20516;-80
2022/11/10 18:15:15;;;;;;;36.53;17.27;;;9.60;35.00;;;;;;10327706;28;20211;-80
2022/11/10 18:20:57;;;;;;;24.43;10.70;;;9.60;21.00;;;;;;10314139;28;20520;-82
2022/11/10 18:26:37;;;;;;;16.67;8.90;;;9.60;18.20;;;;;;10297492;28;20204;-80
2022/11/10 18:32:17;;;;;;;16.87;9.27;;;9.60;27.50;;;;;;10314007;28;20196;-87
2022/11/10 18:37:57;;;;;;;21.13;10.03;;;9.50;42.50;;;;;;10302823;28;20208;-80
2022/11/10 18:43:38;;;;;;;26.13;11.80;;;9.50;48.30;;;;;;10319983;28;20201;-80
2022/11/10 18:49:18;;;;;;;28.10;12.47;;;9.40;64.60;;;;;;10310110;28;20222;-80
2022/11/10 18:54:58;;;;;;;22.20;11.73;;;9.40;55.30;;;;;;10321190;28;20204;-81
2022/11/10 19:00:38;;;;;;;22.63;10.23;;;9.40;71.60;;;;;;10309869;28;20245;-79
2022/11/10 19:06:18;;;;;;;26.03;12.90;;;9.30;84.10;;;;;;10348897;28;20258;-81
2022/11/10 19:11:58;;;;;;;29.37;13.33;;;9.20;97.80;;;;;;10360739;28;20405;-80
2022/11/10 19:17:38;;;;;;;25.17;13.47;;;9.20;99.90;;;;;;10335190;28;20210;-80
2022/11/10 19:23:18;;;;;;;29.33;17.13;;;9.20;99.90;;;;;;10333826;28;20208;-79
2022/11/10 19:28:59;;;;;;;38.93;16.07;;;9.20;99.90;;;;;;10334072;28;20238;-84
2022/11/10 19:34:39;;;;;;;26.57;13.40;;;9.10;99.90;;;;;;10343731;28;20203;-80
2022/11/10 19:40:20;;;;;;;28.87;12.47;;;9.10;99.90;;;;;;10344802;28;20283;-88
2022/11/10 19:46:02;;;;;;;27.37;12.20;;;9.00;99.90;;;;;;10332614;28;20199;-81
2022/11/10 19:51:43;;;;;;;21.17;10.40;;;9.00;99.90;;;;;;10361072;28;20235;-81
2022/11/10 19:57:23;;;;;;;22.63;9.47;;;9.00;99.90;;;;;;10346846;28;20545;-80
2022/11/10 20:03:03;;;;;;;20.30;9.20;;;9.10;99.90;;;;;;10305195;28;20215;-79
2022/11/10 20:08:43;;;;;;;15.23;9.33;;;9.00;99.90;;;;;;10386703;28;20460;-79
2022/11/10 20:14:24;;;;;;;11.40;6.20;;;9.00;99.90;;;;;;10315483;28;20215;-79
2022/11/10 20:20:04;;;;;;;11.00;5.77;;;9.00;99.90;;;;;;10343379;28;20214;-81
2022/11/10 20:25:44;;;;;;;14.17;5.67;;;8.90;99.90;;;;;;10348946;28;20202;-83
2022/11/10 20:31:25;;;;;;;11.20;5.87;;;8.90;99.90;;;;;;10332975;28;20241;-84
2022/11/10 20:37:05;;;;;;;11.40;5.90;;;8.90;99.90;;;;;;10341631;28;20206;-82
2022/11/10 20:42:45;;;;;;;13.63;6.03;;;8.90;99.90;;;;;;10358457;28;20200;-80
2022/11/10 20:48:25;;;;;;;15.77;8.17;;;8.80;99.90;;;;;;10358178;28;20222;-83
2022/11/10 20:54:05;;;;;;;13.90;7.73;;;8.80;99.90;;;;;;10329549;28;20202;-79
2022/11/10 20:59:46;;;;;;;26.40;11.27;;;8.80;99.90;;;;;;10349750;28;20306;-84
2022/11/10 21:05:26;;;;;;;25.93;11.60;;;8.90;99.90;;;;;;10317920;28;20193;-82
2022/11/10 21:11:08;;;;;;;14.63;7.93;;;8.80;99.90;;;;;;10369190;28;20407;-83
2022/11/10 21:16:48;;;;;;;19.60;8.33;;;8.80;99.90;;;;;;10357935;28;20207;-83
2022/11/10 21:22:27;;;;;;;14.47;7.37;;;8.70;99.90;;;;;;10328338;28;20314;-80
2022/11/10 21:28:08;;;;;;;25.10;10.60;;;8.80;99.90;;;;;;10328379;28;20317;-80
2022/11/10 21:33:49;;;;;;;26.03;11.37;;;8.80;99.90;;;;;;10339285;28;20211;-80
2022/11/10 21:39:28;;;;;;;30.57;13.87;;;8.90;99.90;;;;;;10339058;28;20213;-79
2022/11/10 21:45:09;;;;;;;21.37;8.83;;;9.00;99.90;;;;;;10356709;28;20442;-79
2022/11/10 21:50:49;;;;;;;23.13;8.70;;;9.10;99.90;;;;;;10356348;28;20218;-79
2022/11/10 21:56:29;;;;;;;23.73;9.83;;;9.20;99.90;;;;;;10338374;28;20522;-79
2022/11/10 22:02:09;;;;;;;22.17;10.73;;;9.20;99.90;;;;;;10329820;28;20199;-82
2022/11/10 22:07:49;;;;;;;19.17;8.87;;;9.30;99.90;;;;;;10342445;28;20246;-79
2022/11/10 22:19:27;;;;;;;25.67;9.17;;;9.30;99.90;;;;;;10365251;28;20230;-79
2022/11/10 22:25:08;;;;;;;16.57;7.70;;;9.30;99.90;;;;;;10353873;28;20203;-81
2022/11/10 22:30:48;;;;;;;11.83;6.33;;;9.40;99.90;;;;;;10353922;28;20541;-79
2022/11/10 22:36:28;;;;;;;17.00;9.37;;;9.40;99.90;;;;;;10363194;28;20501;-79
2022/11/10 22:48:24;;;;;;;15.63;7.50;;;9.40;99.90;;;;;;10367096;28;20262;-81
2022/11/10 22:54:09;;;;;;;20.30;8.70;;;9.40;99.90;;;;;;10345378;28;20211;-79
2022/11/10 22:59:49;;;;;;;19.13;7.83;;;9.50;99.90;;;;;;10336980;28;20239;-80
2022/11/10 23:05:33;;;;;;;16.57;8.00;;;9.60;99.90;;;;;;10305306;28;20452;-81
2022/11/10 23:11:15;;;;;;;17.93;8.43;;;9.50;99.90;;;;;;10321632;28;20313;-81
2022/11/10 23:16:56;;;;;;;14.60;7.10;;;9.50;99.90;;;;;;10363663;28;20363;-80
2022/11/10 23:22:35;;;;;;;13.70;7.63;;;9.60;99.90;;;;;;10361269;28;20265;-83
2022/11/10 23:28:16;;;;;;;17.37;7.03;;;9.60;99.90;;;;;;10342460;28;20238;-84
2022/11/10 23:33:56;;;;;;;16.50;7.77;;;9.60;99.90;;;;;;10333086;28;20202;-79
2022/11/10 23:39:36;;;;;;;14.47;7.33;;;9.60;99.90;;;;;;10361218;28;20539;-80
2022/11/10 23:45:16;;;;;;;14.87;7.07;;;9.60;99.90;;;;;;10343570;28;20202;-87
2022/11/10 23:50:56;;;;;;;13.90;7.30;;;9.60;99.90;;;;;;10331823;28;20283;-80
2022/11/10 23:56:36;;;;;;;13.10;6.93;;;9.70;99.90;;;;;;10348594;28;20196;-80
